Time;durP1;ratioP1;P1;durP2;ratioP2;P2;SDS_P1;SDS_P2;PMS_P1;PMS_P2;Temp;Humidity;BMP_temperature;BMP_pressure;BME280_temperature;BME280_humidity;BME280_pressure;Samples;Min_cycle;Max_cycle;Signal;HPM_P1;HPM_P2
2021/12/03 00:01:26;;;;;;;24.13;11.63;;;-4.90;99.90;;;;;;5062355;28;20393;-83
2021/12/03 00:03:52;;;;;;;20.40;11.83;;;-7.50;99.90;;;;;;5057491;28;20172;-79
2021/12/03 00:06:19;;;;;;;20.93;9.93;;;-6.10;99.90;;;;;;5058212;28;20478;-81
2021/12/03 00:08:45;;;;;;;16.70;10.20;;;-4.50;99.90;;;;;;5058244;28;20178;-80
2021/12/03 00:11:13;;;;;;;19.53;10.33;;;-5.20;99.90;;;;;;5057660;28;20497;-81
2021/12/03 00:13:39;;;;;;;16.93;10.07;;;-5.40;99.90;;;;;;5039063;28;20409;-77
2021/12/03 00:16:06;;;;;;;25.77;10.07;;;-8.60;99.90;;;;;;5056340;28;20452;-80
2021/12/03 00:18:33;;;;;;;20.10;11.83;;;-5.00;99.90;;;;;;5058546;28;20844;-80
2021/12/03 00:21:03;;;;;;;16.63;11.00;;;-7.00;99.90;;;;;;5042995;28;20401;-85
2021/12/03 00:23:29;;;;;;;21.17;11.20;;;-6.80;99.90;;;;;;5043342;28;20785;-81
2021/12/03 00:25:58;;;;;;;24.50;13.20;;;-6.90;99.90;;;;;;5060655;28;20854;-78
2021/12/03 00:28:24;;;;;;;25.13;10.83;;;-7.10;99.90;;;;;;5061577;28;20408;-79
2021/12/03 00:30:50;;;;;;;25.93;12.57;;;-4.90;99.90;;;;;;5060957;28;20543;-78
2021/12/03 00:33:15;;;;;;;20.70;11.87;;;-5.80;99.90;;;;;;5060994;28;20168;-77
2021/12/03 00:35:41;;;;;;;25.33;10.87;;;-5.80;99.90;;;;;;5060558;28;20215;-79
2021/12/03 00:38:07;;;;;;;16.10;10.23;;;-7.30;99.90;;;;;;5061086;28;20510;-80
2021/12/03 00:40:37;;;;;;;21.20;11.10;;;-7.20;99.90;;;;;;5060910;28;20168;-82
2021/12/03 00:43:03;;;;;;;24.10;12.00;;;-7.30;99.90;;;;;;5060825;28;20609;-79
2021/12/03 00:45:31;;;;;;;16.30;10.07;;;-7.10;99.90;;;;;;5060908;28;20402;-76
2021/12/03 00:47:58;;;;;;;19.07;11.10;;;-7.20;99.90;;;;;;5042360;28;20898;-79
2021/12/03 00:50:25;;;;;;;24.83;11.03;;;-7.60;99.90;;;;;;5059909;28;20424;-76
2021/12/03 00:52:52;;;;;;;18.63;10.77;;;-6.50;99.90;;;;;;5058639;28;20748;-75
2021/12/03 00:55:19;;;;;;;17.07;10.87;;;-7.60;99.90;;;;;;5058789;28;20535;-76
2021/12/03 00:57:44;;;;;;;17.67;9.43;;;-7.80;99.90;;;;;;5058564;28;20396;-76
2021/12/03 01:00:15;;;;;;;25.43;11.57;;;-8.00;99.90;;;;;;5059063;28;20396;-77
2021/12/03 01:02:41;;;;;;;19.37;11.50;;;-7.90;99.90;;;;;;5058847;28;20167;-76
2021/12/03 01:05:08;;;;;;;20.47;9.57;;;-7.80;99.90;;;;;;5058830;28;20423;-76
2021/12/03 01:07:33;;;;;;;22.67;11.33;;;-8.00;99.90;;;;;;5058675;28;20396;-76
2021/12/03 01:10:00;;;;;;;19.73;11.77;;;-5.40;99.90;;;;;;5040593;28;20873;-76
2021/12/03 01:12:26;;;;;;;24.03;11.53;;;-5.70;99.90;;;;;;5058258;28;20170;-76
2021/12/03 01:14:52;;;;;;;21.83;11.43;;;-7.80;99.90;;;;;;5040736;28;20406;-76
2021/12/03 01:17:18;;;;;;;17.47;10.30;;;-5.60;99.90;;;;;;5058122;28;20243;-76
2021/12/03 01:19:45;;;;;;;20.13;11.70;;;-7.90;99.90;;;;;;5040668;28;20408;-76
2021/12/03 01:22:11;;;;;;;26.97;13.13;;;-6.40;99.90;;;;;;5040402;28;20174;-76
2021/12/03 01:24:36;;;;;;;18.23;11.43;;;-6.30;99.90;;;;;;5057780;28;20408;-76
2021/12/03 01:27:03;;;;;;;29.60;13.20;;;-6.20;99.90;;;;;;5040787;28;20260;-77
2021/12/03 01:29:28;;;;;;;20.03;10.43;;;-7.90;99.90;;;;;;5057672;28;20166;-78
2021/12/03 01:31:56;;;;;;;20.97;11.70;;;-7.40;99.90;;;;;;5057862;28;20422;-76
2021/12/03 01:34:23;;;;;;;21.93;13.20;;;-7.70;99.90;;;;;;5057670;28;20187;-76
2021/12/03 01:36:49;;;;;;;27.10;12.67;;;-6.80;99.90;;;;;;5040015;28;20450;-76
2021/12/03 01:39:16;;;;;;;17.33;12.37;;;-8.30;99.90;;;;;;5057413;28;20443;-75
2021/12/03 01:41:42;;;;;;;32.30;13.13;;;-8.20;99.90;;;;;;5040107;28;20423;-75
2021/12/03 01:44:09;;;;;;;28.47;13.00;;;-7.90;99.90;;;;;;5057577;28;20846;-76
2021/12/03 01:46:34;;;;;;;24.93;12.27;;;-8.10;99.90;;;;;;5057805;28;20166;-76
2021/12/03 01:49:01;;;;;;;31.93;12.70;;;-7.40;99.90;;;;;;5057815;28;20404;-76
2021/12/03 01:51:27;;;;;;;32.43;12.87;;;-6.00;99.90;;;;;;5057668;28;20178;-76
2021/12/03 01:53:54;;;;;;;22.87;12.47;;;-6.00;99.90;;;;;;5056992;28;20401;-75
2021/12/03 01:56:21;;;;;;;23.27;12.47;;;-6.00;99.90;;;;;;5040248;28;20542;-77
2021/12/03 01:58:50;;;;;;;19.17;11.13;;;-7.20;99.90;;;;;;5057833;28;20403;-78
2021/12/03 02:01:22;;;;;;;27.80;10.60;;;-7.30;99.90;;;;;;5058148;28;20462;-76
2021/12/03 02:03:52;;;;;;;17.80;12.40;;;-5.80;99.90;;;;;;5057011;28;20676;-76
2021/12/03 02:06:19;;;;;;;26.77;12.17;;;-6.60;99.90;;;;;;5056985;28;20425;-76
2021/12/03 02:08:45;;;;;;;22.00;11.57;;;-4.70;99.90;;;;;;5057111;28;20906;-78
2021/12/03 02:11:12;;;;;;;33.40;10.67;;;-5.70;99.90;;;;;;5057395;28;20400;-81
2021/12/03 02:13:38;;;;;;;28.80;12.30;;;-6.70;99.90;;;;;;5057322;28;20412;-75
2021/12/03 02:16:05;;;;;;;21.53;10.67;;;-8.00;99.90;;;;;;5057320;28;20442;-76
2021/12/03 02:18:31;;;;;;;32.43;12.97;;;-7.80;99.90;;;;;;5057099;28;20400;-76
2021/12/03 02:21:02;;;;;;;26.10;10.23;;;-5.40;99.90;;;;;;5057009;28;20456;-78
2021/12/03 02:23:28;;;;;;;32.00;11.00;;;-7.50;99.90;;;;;;5057226;28;20165;-76
2021/12/03 02:25:55;;;;;;;17.90;8.97;;;-5.80;99.90;;;;;;5057220;28;20857;-77
2021/12/03 02:28:26;;;;;;;18.13;10.03;;;-7.30;99.90;;;;;;5056967;28;20400;-76
2021/12/03 02:30:55;;;;;;;19.50;9.53;;;-7.80;99.90;;;;;;5057117;28;20474;-81
2021/12/03 02:33:23;;;;;;;24.27;9.90;;;-7.60;99.90;;;;;;5056905;28;20486;-81
2021/12/03 02:35:50;;;;;;;21.10;8.30;;;-7.40;99.90;;;;;;5056413;28;20463;-78
2021/12/03 02:38:19;;;;;;;27.17;10.20;;;-6.20;99.90;;;;;;5057228;28;20628;-83
2021/12/03 02:40:47;;;;;;;20.37;8.87;;;-7.40;99.90;;;;;;5057448;28;20475;-81
2021/12/03 02:43:14;;;;;;;17.30;8.57;;;-6.00;99.90;;;;;;5057228;28;20406;-76
2021/12/03 02:45:40;;;;;;;19.70;8.63;;;-6.10;99.90;;;;;;5056723;28;20403;-81
2021/12/03 02:48:07;;;;;;;21.40;8.17;;;-7.30;99.90;;;;;;5056717;28;20461;-75
2021/12/03 02:50:33;;;;;;;24.13;8.77;;;-6.00;99.90;;;;;;5056238;28;20401;-76
2021/12/03 02:53:00;;;;;;;18.33;8.13;;;-5.70;99.90;;;;;;5056262;28;20514;-76
2021/12/03 02:55:26;;;;;;;29.27;9.80;;;-7.80;99.90;;;;;;5056499;28;20687;-76
2021/12/03 02:57:52;;;;;;;28.77;9.13;;;-6.80;99.90;;;;;;5056366;28;20834;-76
2021/12/03 03:25:58;;;;;;;30.00;7.83;;;-6.10;99.90;;;;;;5074590;28;21019;-79
2021/12/03 03:28:24;;;;;;;19.27;6.60;;;-6.40;99.90;;;;;;5074407;28;20687;-79
2021/12/03 03:30:53;;;;;;;21.67;6.47;;;-8.30;99.90;;;;;;5073750;28;20471;-78
2021/12/03 03:33:20;;;;;;;18.20;6.77;;;-8.40;99.90;;;;;;5073140;28;20434;-78
2021/12/03 03:35:46;;;;;;;23.87;9.33;;;-8.60;99.90;;;;;;5073455;28;20398;-78
2021/12/03 03:38:12;;;;;;;21.13;6.50;;;-6.00;99.90;;;;;;5073813;28;20419;-76
2021/12/03 03:40:40;;;;;;;22.43;5.67;;;-8.60;99.90;;;;;;5073514;28;20387;-77
2021/12/03 03:48:35;;;;;;;19.43;7.33;;;-9.30;99.90;;;;;;5073632;28;20542;-77
2021/12/03 03:51:01;;;;;;;23.03;6.90;;;-6.80;99.90;;;;;;5072787;28;20399;-81
2021/12/03 03:53:26;;;;;;;20.10;7.63;;;-6.30;99.90;;;;;;5073273;28;20590;-76
2021/12/03 03:55:52;;;;;;;29.17;7.63;;;-6.90;99.90;;;;;;5074214;28;20545;-76
2021/12/03 03:58:18;;;;;;;17.87;5.23;;;-8.30;99.90;;;;;;5074487;28;20214;-81
2021/12/03 04:00:46;;;;;;;15.33;6.23;;;-7.00;99.90;;;;;;5073669;28;20162;-75
2021/12/03 04:03:13;;;;;;;19.30;6.30;;;-8.70;99.90;;;;;;5073242;28;20200;-74
2021/12/03 04:05:39;;;;;;;19.53;6.93;;;-8.80;99.90;;;;;;5073048;28;20670;-80
2021/12/03 04:08:05;;;;;;;24.53;7.93;;;-6.50;99.90;;;;;;5073982;28;20451;-81
2021/12/03 04:10:32;;;;;;;16.57;5.07;;;-7.20;99.90;;;;;;5073759;28;20266;-81
2021/12/03 04:13:00;;;;;;;21.23;6.13;;;-8.90;99.90;;;;;;5073894;28;20531;-77
2021/12/03 04:15:26;;;;;;;17.20;6.00;;;-7.30;99.90;;;;;;5073574;28;20390;-77
2021/12/03 04:17:52;;;;;;;24.17;7.00;;;-8.80;99.90;;;;;;5072709;28;20419;-76
2021/12/03 04:20:19;;;;;;;26.77;5.87;;;-8.90;99.90;;;;;;5072985;28;20409;-77
2021/12/03 04:22:45;;;;;;;19.33;6.13;;;-8.70;99.90;;;;;;5072807;28;20403;-76
2021/12/03 04:25:16;;;;;;;13.87;5.80;;;-9.30;99.90;;;;;;5072663;28;20406;-74
2021/12/03 04:27:43;;;;;;;25.47;5.63;;;-9.00;99.90;;;;;;5072659;28;20451;-76
2021/12/03 04:30:13;;;;;;;33.30;7.43;;;-8.90;99.90;;;;;;5072969;28;20393;-76
2021/12/03 04:32:39;;;;;;;20.67;6.47;;;-8.60;99.90;;;;;;5072315;28;20684;-75
2021/12/03 04:35:06;;;;;;;11.43;6.10;;;-5.80;99.90;;;;;;5072549;28;20399;-77
2021/12/03 04:37:32;;;;;;;13.83;5.97;;;-8.40;99.90;;;;;;5072821;28;20174;-75
2021/12/03 04:39:58;;;;;;;17.10;5.73;;;-8.50;99.90;;;;;;5072431;28;20392;-75
2021/12/03 04:42:23;;;;;;;17.03;6.70;;;-8.30;99.90;;;;;;5072090;28;20530;-74
2021/12/03 04:44:50;;;;;;;19.33;5.17;;;-8.30;99.90;;;;;;5071439;28;20177;-75
2021/12/03 04:47:16;;;;;;;21.80;5.23;;;-8.00;99.90;;;;;;5071636;28;20287;-78
2021/12/03 04:49:42;;;;;;;15.73;5.07;;;-6.70;99.90;;;;;;5072583;28;20421;-77
2021/12/03 04:52:08;;;;;;;17.87;4.97;;;-6.70;99.90;;;;;;5072235;28;20432;-76
2021/12/03 04:54:34;;;;;;;16.83;5.50;;;-8.50;99.90;;;;;;5071620;28;20193;-75
2021/12/03 04:56:59;;;;;;;15.53;5.90;;;-8.60;99.90;;;;;;5073020;28;20857;-77
2021/12/03 04:59:26;;;;;;;9.60;4.80;;;-8.60;99.90;;;;;;5062463;28;20257;-74
2021/12/03 05:01:56;;;;;;;12.63;6.43;;;-8.30;99.90;;;;;;5058794;28;20201;-77
2021/12/03 05:04:22;;;;;;;14.17;4.40;;;-6.00;99.90;;;;;;5059395;28;20403;-75
2021/12/03 05:06:54;;;;;;;15.33;5.53;;;-8.40;99.90;;;;;;5059920;28;20438;-78
2021/12/03 05:09:21;;;;;;;13.70;4.13;;;-8.40;99.90;;;;;;5060147;28;20428;-78
2021/12/03 05:11:47;;;;;;;14.43;5.33;;;-6.30;99.90;;;;;;5059925;28;20446;-81
2021/12/03 05:14:13;;;;;;;15.67;5.10;;;-8.00;99.90;;;;;;5058411;28;20545;-75
2021/12/03 05:16:39;;;;;;;11.27;4.43;;;-6.10;99.90;;;;;;5057821;28;20192;-79
2021/12/03 05:19:04;;;;;;;17.67;6.10;;;-8.00;99.90;;;;;;5057366;28;20484;-75
2021/12/03 05:21:30;;;;;;;21.37;7.03;;;-8.00;99.90;;;;;;5058513;28;20178;-75
2021/12/03 05:23:56;;;;;;;15.43;4.57;;;-7.80;99.90;;;;;;5058313;28;20585;-76
2021/12/03 05:26:22;;;;;;;12.17;5.20;;;-7.80;99.90;;;;;;5058466;28;20508;-76
2021/12/03 05:28:49;;;;;;;14.87;5.20;;;-5.60;99.90;;;;;;5059766;28;20408;-81
2021/12/03 05:31:15;;;;;;;18.27;5.60;;;-6.80;99.90;;;;;;5059530;28;20464;-82
2021/12/03 05:33:41;;;;;;;10.53;5.70;;;-7.90;99.90;;;;;;5059548;28;20424;-80
2021/12/03 05:36:07;;;;;;;15.00;6.07;;;-6.30;99.90;;;;;;5059985;28;20246;-81
2021/12/03 05:38:32;;;;;;;14.40;5.33;;;-8.00;99.90;;;;;;5059797;28;20253;-81
2021/12/03 05:40:58;;;;;;;13.20;5.33;;;-5.90;99.90;;;;;;5059091;28;20175;-81
2021/12/03 05:43:24;;;;;;;11.33;4.67;;;-7.60;99.90;;;;;;5059706;28;20175;-81
2021/12/03 05:45:50;;;;;;;27.67;7.80;;;-7.50;99.90;;;;;;5059236;28;20175;-81
2021/12/03 05:48:16;;;;;;;15.87;6.10;;;-6.50;99.90;;;;;;5057672;28;20209;-82
2021/12/03 05:50:42;;;;;;;13.63;5.13;;;-7.60;99.90;;;;;;5058548;28;20251;-82
2021/12/03 05:53:08;;;;;;;20.77;7.23;;;-6.30;99.90;;;;;;5059434;28;20616;-82
2021/12/03 05:55:34;;;;;;;14.03;5.40;;;-7.60;99.90;;;;;;5059300;28;20457;-80
2021/12/03 05:58:00;;;;;;;14.13;5.83;;;-5.80;99.90;;;;;;5059328;28;20404;-82
2021/12/03 06:00:31;;;;;;;15.37;5.17;;;-5.00;99.90;;;;;;5059073;28;20177;-77
2021/12/03 06:02:57;;;;;;;12.13;4.50;;;-5.20;99.90;;;;;;5059171;28;20170;-81
2021/12/03 06:05:28;;;;;;;20.80;5.23;;;-5.40;99.90;;;;;;5057913;28;20451;-80
2021/12/03 06:07:55;;;;;;;19.20;5.97;;;-5.40;99.90;;;;;;5058817;28;20469;-79
2021/12/03 06:10:21;;;;;;;25.70;8.60;;;-5.60;99.90;;;;;;5057476;28;20391;-81
2021/12/03 06:12:47;;;;;;;10.23;5.80;;;-7.10;99.90;;;;;;5058223;28;20400;-80
2021/12/03 06:15:15;;;;;;;16.00;6.00;;;-7.50;99.90;;;;;;5058494;28;20410;-79
2021/12/03 06:17:41;;;;;;;13.33;5.23;;;-5.80;99.90;;;;;;5058255;28;20486;-75
2021/12/03 06:20:09;;;;;;;39.23;8.70;;;-6.90;99.90;;;;;;5057471;28;20405;-78
2021/12/03 06:22:35;;;;;;;23.10;6.77;;;-6.50;99.90;;;;;;5057738;28;20838;-75
2021/12/03 06:25:02;;;;;;;25.93;7.20;;;-7.10;99.90;;;;;;5057720;28;20402;-83
2021/12/03 06:27:30;;;;;;;28.27;7.67;;;-7.00;99.90;;;;;;5057278;28;20459;-80
2021/12/03 06:29:57;;;;;;;16.73;6.63;;;-5.90;99.90;;;;;;5058378;28;20403;-79
2021/12/03 06:32:23;;;;;;;12.07;4.10;;;-6.60;99.90;;;;;;5058346;28;20445;-78
2021/12/03 06:34:50;;;;;;;17.57;5.43;;;-6.80;99.90;;;;;;5058505;28;20420;-76
2021/12/03 06:37:16;;;;;;;27.80;7.07;;;-5.30;99.90;;;;;;5057780;28;20405;-76
2021/12/03 06:39:42;;;;;;;13.07;5.93;;;-5.70;99.90;;;;;;5057432;28;20400;-74
2021/12/03 06:42:07;;;;;;;14.13;5.53;;;-6.10;99.90;;;;;;5056925;28;20447;-77
2021/12/03 06:44:34;;;;;;;18.30;4.37;;;-7.60;99.90;;;;;;5057469;28;20182;-76
2021/12/03 06:47:02;;;;;;;15.83;6.13;;;-7.90;99.90;;;;;;5057138;28;20297;-81
2021/12/03 06:49:30;;;;;;;15.67;4.10;;;-7.70;99.90;;;;;;5052954;28;20883;-75
2021/12/03 06:52:03;;;;;;;19.97;5.73;;;-5.00;99.90;;;;;;5040428;28;20846;-78
2021/12/03 06:54:32;;;;;;;16.67;5.83;;;-7.80;99.90;;;;;;5041253;28;20505;-80
2021/12/03 06:56:59;;;;;;;12.93;4.23;;;-7.30;99.90;;;;;;5038394;28;20394;-83
2021/12/03 06:59:25;;;;;;;6.20;5.53;;;-5.80;99.90;;;;;;5025546;28;20429;-76
2021/12/03 07:01:52;;;;;;;17.40;5.10;;;-6.00;99.90;;;;;;5053642;28;20393;-81
2021/12/03 07:04:18;;;;;;;9.00;3.47;;;-6.00;99.90;;;;;;5055944;28;21054;-80
2021/12/03 07:06:44;;;;;;;12.73;4.13;;;-7.70;99.90;;;;;;5057031;28;20444;-75
2021/12/03 07:09:11;;;;;;;16.17;4.80;;;-6.80;99.90;;;;;;5055887;28;20397;-81
2021/12/03 07:11:37;;;;;;;17.83;4.87;;;-5.50;99.90;;;;;;5056242;28;20204;-75
2021/12/03 07:14:04;;;;;;;12.60;3.67;;;-7.30;99.90;;;;;;5056679;28;20385;-76
2021/12/03 07:16:30;;;;;;;11.33;3.90;;;-7.50;99.90;;;;;;5050330;28;20431;-75
2021/12/03 07:18:57;;;;;;;10.90;4.20;;;-7.40;99.90;;;;;;5056071;28;20444;-77
2021/12/03 07:21:23;;;;;;;17.07;4.20;;;-6.40;99.90;;;;;;5057316;28;20467;-76
2021/12/03 07:23:50;;;;;;;7.27;2.93;;;-5.30;99.90;;;;;;5042257;28;20464;-83
2021/12/03 07:26:17;;;;;;;13.17;4.27;;;-7.60;99.90;;;;;;5037391;28;20382;-76
2021/12/03 07:28:43;;;;;;;19.10;6.93;;;-5.50;99.90;;;;;;5043858;28;20406;-81
2021/12/03 07:31:09;;;;;;;15.17;4.60;;;-8.20;99.90;;;;;;5057139;28;20393;-78
2021/12/03 07:33:36;;;;;;;15.23;4.27;;;-6.20;99.90;;;;;;5056335;28;20857;-75
2021/12/03 07:36:01;;;;;;;15.80;4.97;;;-7.90;99.90;;;;;;5035639;28;20394;-76
2021/12/03 07:38:27;;;;;;;13.63;4.17;;;-6.30;99.90;;;;;;5035619;28;20408;-72
2021/12/03 07:40:54;;;;;;;7.17;3.47;;;-7.70;99.90;;;;;;5035576;28;20161;-75
2021/12/03 07:43:20;;;;;;;11.60;4.53;;;-7.60;99.90;;;;;;5047177;28;20229;-71
2021/12/03 07:45:47;;;;;;;7.57;4.67;;;-5.60;99.90;;;;;;5055486;28;20784;-76
2021/12/03 07:48:14;;;;;;;8.50;4.37;;;-6.30;99.90;;;;;;5055917;28;20237;-78
2021/12/03 07:50:41;;;;;;;15.20;5.83;;;-5.90;99.90;;;;;;5051777;28;20420;-81
2021/12/03 07:53:13;;;;;;;8.63;4.00;;;-7.40;99.90;;;;;;5055524;28;20405;-78
2021/12/03 07:55:38;;;;;;;6.70;5.03;;;-5.90;99.90;;;;;;5055910;28;20411;-76
2021/12/03 07:58:05;;;;;;;13.93;6.50;;;-5.30;99.90;;;;;;5054730;28;20429;-77
2021/12/03 08:00:31;;;;;;;11.27;5.27;;;-5.50;99.90;;;;;;5054314;28;20575;-75
2021/12/03 08:02:58;;;;;;;10.33;5.40;;;-6.70;99.90;;;;;;5054374;28;20777;-76
2021/12/03 08:05:24;;;;;;;15.67;6.03;;;-5.80;99.90;;;;;;5054683;28;20836;-79
2021/12/03 08:07:51;;;;;;;12.17;5.30;;;-7.70;99.90;;;;;;5055220;28;20440;-77
2021/12/03 08:10:17;;;;;;;16.17;5.67;;;-8.10;99.90;;;;;;5055524;28;20160;-78
2021/12/03 08:12:45;;;;;;;11.93;4.73;;;-8.00;99.90;;;;;;5056273;28;20484;-76
2021/12/03 08:15:11;;;;;;;8.77;5.43;;;-6.70;99.90;;;;;;5055752;28;20860;-75
2021/12/03 08:17:38;;;;;;;17.77;6.27;;;-5.40;99.90;;;;;;5055417;28;20420;-75
2021/12/03 08:20:08;;;;;;;9.93;5.37;;;-6.40;99.90;;;;;;5054484;28;20436;-81
2021/12/03 08:22:34;;;;;;;9.10;5.57;;;-7.80;99.90;;;;;;5055310;28;20409;-75
2021/12/03 08:25:00;;;;;;;13.17;5.23;;;-7.10;99.90;;;;;;5054996;28;20448;-74
2021/12/03 08:27:27;;;;;;;9.93;4.50;;;-7.80;99.90;;;;;;5055193;28;20903;-75
2021/12/03 08:29:52;;;;;;;11.80;4.87;;;-6.50;99.90;;;;;;5054864;28;20424;-75
2021/12/03 08:32:19;;;;;;;8.97;4.27;;;-6.20;99.90;;;;;;5051025;28;20415;-73
2021/12/03 08:34:46;;;;;;;6.97;4.30;;;-5.80;99.90;;;;;;5055596;28;20200;-74
2021/12/03 08:37:12;;;;;;;8.67;5.00;;;-8.10;99.90;;;;;;5059063;28;20474;-73
2021/12/03 08:39:39;;;;;;;11.90;5.63;;;-8.80;99.90;;;;;;5057392;28;20397;-80
2021/12/03 08:42:07;;;;;;;12.37;5.97;;;-8.70;99.90;;;;;;5056683;28;20234;-73
2021/12/03 08:44:33;;;;;;;8.93;5.23;;;-8.40;99.90;;;;;;5059937;28;20409;-84
2021/12/03 08:47:06;;;;;;;15.03;5.60;;;-7.70;99.90;;;;;;5060105;28;20462;-76
2021/12/03 08:57:12;;;;;;;10.30;5.07;;;-7.90;99.90;;;;;;5058267;28;20459;-74
2021/12/03 08:59:38;;;;;;;10.77;5.13;;;-6.00;99.90;;;;;;5056979;28;20485;-75
2021/12/03 09:02:04;;;;;;;11.23;5.30;;;-5.90;99.90;;;;;;5056146;28;20435;-80
2021/12/03 09:04:30;;;;;;;13.00;6.77;;;-7.50;99.90;;;;;;5058317;28;20493;-75
2021/12/03 09:07:00;;;;;;;17.40;6.67;;;-6.10;99.90;;;;;;5058251;28;20991;-74
2021/12/03 09:09:27;;;;;;;14.07;5.57;;;-8.70;99.90;;;;;;5056194;28;20233;-74
2021/12/03 09:11:54;;;;;;;10.13;5.03;;;-7.70;99.90;;;;;;5056396;28;20439;-74
2021/12/03 09:17:08;;;;;;;11.23;5.20;;;-8.00;99.90;;;;;;5056653;28;20486;-74
2021/12/03 09:19:39;;;;;;;10.37;6.10;;;-9.10;99.90;;;;;;5057869;28;20421;-74
2021/12/03 09:22:06;;;;;;;7.80;4.13;;;-6.20;99.90;;;;;;5056792;28;20440;-74
2021/12/03 09:24:36;;;;;;;9.10;4.67;;;-8.30;99.90;;;;;;5057490;28;20416;-74
2021/12/03 09:27:03;;;;;;;9.83;4.77;;;-7.80;99.90;;;;;;5057826;28;20911;-74
2021/12/03 09:29:34;;;;;;;13.37;4.80;;;-8.40;99.90;;;;;;5056678;28;20716;-75
2021/12/03 09:32:00;;;;;;;7.77;4.93;;;-6.90;99.90;;;;;;5054589;28;20688;-74
2021/12/03 09:34:32;;;;;;;8.20;5.07;;;-7.20;99.90;;;;;;5044964;28;20433;-75
2021/12/03 09:36:58;;;;;;;10.87;4.93;;;-7.00;99.90;;;;;;5049783;28;20408;-74
2021/12/03 09:39:25;;;;;;;13.77;4.53;;;-8.60;99.90;;;;;;5057097;28;20743;-74
2021/12/03 09:41:54;;;;;;;9.87;5.13;;;-8.30;99.90;;;;;;5057553;28;20401;-74
2021/12/03 09:44:21;;;;;;;9.00;5.20;;;-8.50;99.90;;;;;;5056766;28;20413;-74
2021/12/03 09:46:48;;;;;;;10.60;4.60;;;-8.50;99.90;;;;;;5057037;28;20502;-74
2021/12/03 09:49:28;;;;;;;9.23;3.97;;;-8.80;99.90;;;;;;5057065;28;20737;-74
2021/12/03 09:52:09;;;;;;;10.97;4.80;;;-7.90;99.90;;;;;;5056374;28;20423;-74
2021/12/03 09:54:44;;;;;;;5.83;4.33;;;-8.20;99.90;;;;;;5056419;28;20409;-74
2021/12/03 09:57:18;;;;;;;17.73;5.27;;;-8.80;99.90;;;;;;5055718;28;20410;-73
2021/12/03 10:02:22;;;;;;;9.73;4.37;;;-8.00;99.90;;;;;;5057439;28;20397;-73
2021/12/03 10:13:36;;;;;;;10.07;4.83;;;-8.50;99.90;;;;;;5057310;28;20393;-74
2021/12/03 10:33:38;;;;;;;7.13;4.30;;;-5.40;99.90;;;;;;5058839;28;20435;-75
2021/12/03 10:41:25;;;;;;;11.93;3.50;;;-6.50;99.90;;;;;;5058066;28;20405;-75
2021/12/03 10:49:29;;;;;;;8.23;3.93;;;-7.80;99.90;;;;;;5057242;28;20495;-75
2021/12/03 10:57:40;;;;;;;13.37;4.77;;;-4.30;99.90;;;;;;5057255;28;20423;-77
2021/12/03 11:28:16;;;;;;;9.63;4.40;;;-4.60;99.90;;;;;;5052886;28;20448;-75
2021/12/03 11:42:05;;;;;;;6.00;3.87;;;-5.60;99.90;;;;;;5045389;28;20748;-76
2021/12/03 12:16:11;;;;;;;12.50;2.80;;;-7.80;99.90;;;;;;5043311;28;20429;-78
2021/12/03 14:05:21;;;;;;;3.03;2.07;;;-5.70;99.90;;;;;;5056933;28;20404;-80
2021/12/03 14:44:41;;;;;;;1.47;1.43;;;-6.00;99.90;;;;;;5045228;28;20730;-82
2021/12/03 14:47:38;;;;;;;1.73;1.63;;;-6.20;99.90;;;;;;5046215;28;20473;-78
2021/12/03 14:50:46;;;;;;;2.30;2.00;;;-4.60;99.90;;;;;;5043242;28;20787;-72
2021/12/03 14:56:07;;;;;;;2.50;1.50;;;-6.10;99.90;;;;;;5057516;28;20444;-74
2021/12/03 15:07:10;;;;;;;1.80;1.70;;;-4.80;99.90;;;;;;5056743;28;20412;-76
2021/12/03 15:09:41;;;;;;;1.60;1.50;;;-6.00;99.90;;;;;;5055842;28;20876;-73
2021/12/03 15:21:08;;;;;;;1.60;1.50;;;-4.30;99.90;;;;;;5055333;28;20416;-84
2021/12/03 15:31:17;;;;;;;1.50;1.40;;;-6.30;99.90;;;;;;5055815;28;21059;-80
2021/12/03 15:34:01;;;;;;;1.20;1.20;;;-5.10;99.90;;;;;;5055713;28;20863;-77
2021/12/03 15:36:57;;;;;;;2.30;2.20;;;-6.20;99.90;;;;;;5055206;28;20500;-79
2021/12/03 15:39:39;;;;;;;2.17;2.07;;;-5.10;99.90;;;;;;5054496;28;20473;-80
2021/12/03 16:04:20;;;;;;;1.50;1.40;;;-6.30;99.90;;;;;;5035501;28;20409;-76
2021/12/03 16:09:45;;;;;;;1.40;1.30;;;-4.50;99.90;;;;;;5036186;28;20512;-76
2021/12/03 16:12:28;;;;;;;1.63;1.40;;;-5.10;99.90;;;;;;5036392;28;20410;-76
2021/12/03 16:15:16;;;;;;;1.50;1.40;;;-6.50;99.90;;;;;;5036944;28;20452;-79
2021/12/03 16:26:22;;;;;;;2.77;2.57;;;-3.40;99.90;;;;;;5045781;28;20464;-82
2021/12/03 16:47:44;;;;;;;1.30;1.30;;;-5.80;99.90;;;;;;5040758;28;20514;-75
2021/12/03 16:52:49;;;;;;;1.80;1.70;;;-7.60;99.90;;;;;;5032613;28;20438;-78
2021/12/03 16:55:16;;;;;;;1.40;1.30;;;-5.60;99.90;;;;;;5032967;28;20410;-79
2021/12/03 16:57:44;;;;;;;1.87;1.77;;;-3.80;99.90;;;;;;5022882;28;20418;-77
2021/12/03 17:00:23;;;;;;;1.70;1.60;;;-4.40;99.90;;;;;;5019616;28;20397;-75
2021/12/03 17:03:07;;;;;;;2.47;2.27;;;-5.90;99.90;;;;;;5018943;28;20937;-72
2021/12/03 17:08:28;;;;;;;1.50;1.40;;;-6.70;99.90;;;;;;5031546;28;20507;-80
2021/12/03 17:16:28;;;;;;;1.60;1.50;;;-5.70;99.90;;;;;;5020495;28;20425;-76
2021/12/03 17:44:18;;;;;;;3.10;1.70;;;-5.30;99.90;;;;;;5039291;28;20417;-74
2021/12/03 17:48:39;;;;;;;2.30;2.10;;;-5.70;99.90;;;;;;5018261;28;20466;-75
2021/12/03 17:53:50;;;;;;;1.83;1.73;;;-2.90;99.90;;;;;;5038033;28;20417;-74
2021/12/03 17:56:18;;;;;;;2.13;1.97;;;-4.80;99.90;;;;;;5038035;28;20424;-73
2021/12/03 17:58:46;;;;;;;2.03;1.93;;;-5.80;99.90;;;;;;5038332;28;20402;-74
2021/12/03 18:44:34;;;;;;;2.40;2.20;;;-5.90;99.90;;;;;;5038554;28;20433;-83
2021/12/03 18:52:47;;;;;;;1.97;1.70;;;-6.20;99.90;;;;;;5038362;28;20729;-80
2021/12/03 18:58:02;;;;;;;1.53;1.37;;;-6.40;99.90;;;;;;5038049;28;20409;-80
2021/12/03 19:00:32;;;;;;;2.50;1.30;;;-5.90;99.90;;;;;;5037656;28;20452;-79
2021/12/03 19:03:03;;;;;;;2.20;2.10;;;-6.00;99.90;;;;;;5036928;28;20414;-76
2021/12/03 19:05:39;;;;;;;1.37;1.33;;;-4.90;99.90;;;;;;5038105;28;20845;-80
2021/12/03 19:08:12;;;;;;;3.20;2.60;;;-6.50;99.90;;;;;;5035484;28;20830;-81
2021/12/03 19:10:46;;;;;;;1.33;1.23;;;-5.30;99.90;;;;;;5036398;28;20760;-80
2021/12/03 19:13:22;;;;;;;1.40;1.30;;;-4.20;99.90;;;;;;5035946;28;20398;-77
2021/12/03 19:15:49;;;;;;;1.90;1.57;;;-6.20;99.90;;;;;;5035937;28;20394;-77
2021/12/03 19:18:16;;;;;;;2.07;1.87;;;-4.90;99.90;;;;;;5036027;28;20512;-79
2021/12/03 19:20:43;;;;;;;2.10;1.90;;;-5.90;99.90;;;;;;5036856;28;20837;-75
2021/12/03 19:23:09;;;;;;;1.90;1.77;;;-3.80;99.90;;;;;;5036172;28;20430;-76
2021/12/03 19:25:35;;;;;;;3.63;1.80;;;-5.90;99.90;;;;;;5025438;28;20449;-74
2021/12/03 19:28:01;;;;;;;1.63;1.40;;;-4.10;99.90;;;;;;5016109;28;20241;-75
2021/12/03 19:30:28;;;;;;;1.53;1.43;;;-5.70;99.90;;;;;;5016027;28;20399;-74
2021/12/03 19:32:53;;;;;;;1.50;1.40;;;-4.90;99.90;;;;;;5016122;28;20419;-74
2021/12/03 19:35:19;;;;;;;1.87;1.77;;;-5.70;99.90;;;;;;5016038;28;20394;-74
2021/12/03 19:37:49;;;;;;;1.43;1.33;;;-4.30;99.90;;;;;;5016213;28;20161;-73
2021/12/03 19:40:15;;;;;;;2.53;2.30;;;-4.30;99.90;;;;;;5015938;28;20399;-74
2021/12/03 19:45:11;;;;;;;1.67;1.53;;;-4.60;99.90;;;;;;5015551;28;20550;-73
2021/12/03 19:47:52;;;;;;;2.33;2.23;;;-6.70;99.90;;;;;;5015591;28;20227;-73
2021/12/03 19:52:57;;;;;;;2.27;2.07;;;-6.70;99.90;;;;;;5015289;28;20399;-76
2021/12/03 19:55:23;;;;;;;1.80;1.70;;;-6.50;99.90;;;;;;5034249;28;20484;-74
2021/12/03 19:57:49;;;;;;;2.27;1.87;;;-6.20;99.90;;;;;;5034912;28;20549;-73
2021/12/03 20:00:16;;;;;;;2.10;1.90;;;-5.80;99.90;;;;;;5034898;28;20302;-74
2021/12/03 20:02:41;;;;;;;1.90;1.80;;;-5.50;99.90;;;;;;5035338;28;20640;-73
2021/12/03 20:05:09;;;;;;;2.07;1.57;;;-6.80;99.90;;;;;;5035516;28;20553;-73
2021/12/03 20:07:34;;;;;;;2.00;1.90;;;-6.00;99.90;;;;;;5034465;28;20200;-73
2021/12/03 20:10:11;;;;;;;2.60;1.77;;;-6.70;99.90;;;;;;5035805;28;20402;-73
2021/12/03 20:12:38;;;;;;;1.60;1.50;;;-6.50;99.90;;;;;;5035859;28;20247;-73
2021/12/03 20:15:08;;;;;;;1.93;1.83;;;-5.10;99.90;;;;;;5034360;28;20730;-74
2021/12/03 20:17:37;;;;;;;1.90;1.63;;;-6.40;99.90;;;;;;5036106;28;20563;-75
2021/12/03 20:20:06;;;;;;;2.90;1.73;;;-6.50;99.90;;;;;;5035684;28;20417;-78
2021/12/03 20:25:19;;;;;;;2.67;2.20;;;-4.50;99.90;;;;;;5029567;28;20424;-75
2021/12/03 20:27:50;;;;;;;2.70;2.20;;;-6.40;99.90;;;;;;5016265;28;20478;-82
2021/12/03 20:33:03;;;;;;;1.80;1.70;;;-4.10;99.90;;;;;;5026126;28;20379;-76
2021/12/03 20:38:11;;;;;;;3.17;2.17;;;-6.70;99.90;;;;;;5020195;28;20472;-76
2021/12/03 20:40:37;;;;;;;2.47;2.10;;;-6.60;99.90;;;;;;5020085;28;20465;-75
2021/12/03 20:43:26;;;;;;;2.30;2.20;;;-6.40;99.90;;;;;;5019564;28;20432;-74
2021/12/03 20:48:26;;;;;;;3.13;2.80;;;-6.40;99.90;;;;;;5022944;28;20473;-79
2021/12/03 20:51:20;;;;;;;3.30;3.00;;;-6.80;99.90;;;;;;5021864;28;20192;-83
2021/12/03 20:53:55;;;;;;;2.07;1.87;;;-6.80;99.90;;;;;;5021917;28;20424;-74